Aviation Digital Data Service (ADDS)

Output produced by METARs form (1244 UTC 24 May 2022)
found at http://www.aviationweather.gov/metar/data/
 
NSFA 241200Z 11003KT 9999 FEW028 25/24 Q1013
NSFA 241100Z 09005KT 9999 FEW027 25/24 Q1014
NSFA 241000Z 10005KT 9999 SCT022 25/24 Q1014
NSFA 240900Z 10004KT 9999 SCT022 25/24 Q1015
NSFA 240800Z 11004KT 9999 FEW024 25/23 Q1014
NSFA 240700Z 12005KT 9999 SCT023 25/23 Q1014
NSFA 240600Z 11005KT 9999 FEW023 BKN280 26/23 Q1013
NSFA 240500Z 08005KT 9999 SCT023 BKN280 28/24 Q1012
NSFA 240400Z 05008KT 9999 SCT023 30/23 Q1012
NSFA 240300Z 08010KT 040V110 9999 SCT022 32/23 Q1012
NSFA 240200Z 06012KT 9999 SCT022 32/23 Q1012
NSFA 240100Z 05011KT 9999 FEW020CB BKN022 32/23 Q1012 RMK CB TO WSW
NSFA 240000Z 05010KT 9999 FEW019CB SCT022 31/24 Q1013 RMK CB TO SW
NSFA 232300Z 08011KT 050V110 9999 SCT024 BKN170 32/26 Q1014
NSFA 232200Z 08011KT 050V110 9999 SCT020 BKN180 31/25 Q1014
NSFA 232100Z 08010KT 030V110 9999 SCT024 30/24 Q1015
NSFA 232000Z 06008KT 010V100 9999 FEW018 SCT045 BKN130 26/24 Q1015 RERA
NSFA 231900Z 00000KT 9999 FEW020TCU SCT025 BKN150 25/23 Q1015 RMK TCU TO NNW
NSFA 231800Z 00000KT 9999 FEW025 24/23 Q1014
NSFA 231700Z 10003KT 9999 FEW027 SCT160 23/22 Q1014
NSFA 231600Z 120006KT 9999 FEW026 23/22 Q1013
NSFA 231500Z 12003KT 9999 FEW027 24/23 Q1013
NSFA 231400Z 10006KT 9999 FEW026 SCT180 25/24 Q1013
NSFA 231300Z 11004KT 9999 FEW027 SCT160 25/23 Q1014
TAF NSFA 241108Z 2412/2512 09005KT 9999 FEW027